Time;durP1;ratioP1;P1;durP2;ratioP2;P2;SDS_P1;SDS_P2;PMS_P1;PMS_P2;Temp;Humidity;BMP_temperature;BMP_pressure;BME280_temperature;BME280_humidity;BME280_pressure;Samples;Min_cycle;Max_cycle;Signal;HPM_P1;HPM_P2
2023/12/05 00:00:39;;;;;;;69.93;28.30;;;-6.00;99.90;;;;;;4959008;29;20205;-91
2023/12/05 00:03:07;;;;;;;72.70;29.17;;;-6.00;99.90;;;;;;4940713;29;20665;-92
2023/12/05 00:05:34;;;;;;;74.33;28.40;;;-6.00;99.90;;;;;;4957155;29;20234;-92
2023/12/05 00:08:01;;;;;;;74.47;29.03;;;-5.90;99.90;;;;;;4942077;29;20234;-92
2023/12/05 00:10:28;;;;;;;74.67;28.67;;;-5.90;99.90;;;;;;4959221;28;20669;-92
2023/12/05 00:12:55;;;;;;;70.17;28.40;;;-5.90;99.90;;;;;;4962416;29;20201;-91
2023/12/05 00:15:22;;;;;;;73.27;28.80;;;-6.00;99.90;;;;;;4961428;29;20607;-92
2023/12/05 00:17:49;;;;;;;68.97;27.67;;;-6.00;99.90;;;;;;4962311;29;20675;-92
2023/12/05 00:20:16;;;;;;;69.00;28.27;;;-6.00;99.90;;;;;;4944379;29;20198;-92
2023/12/05 00:22:44;;;;;;;69.93;27.87;;;-5.90;99.90;;;;;;4929378;29;20206;-91
2023/12/05 00:25:12;;;;;;;71.43;27.43;;;-6.00;99.90;;;;;;4961569;29;20198;-92
2023/12/05 00:27:39;;;;;;;70.43;27.83;;;-6.00;99.90;;;;;;4944589;29;20214;-91
2023/12/05 00:30:07;;;;;;;67.17;26.53;;;-6.10;99.90;;;;;;4947454;29;20293;-91
2023/12/05 00:32:34;;;;;;;69.20;27.33;;;-6.00;99.90;;;;;;4960930;29;20199;-92
2023/12/05 00:35:05;;;;;;;67.40;26.93;;;-6.10;99.90;;;;;;4962490;28;20190;-91
2023/12/05 00:37:36;;;;;;;67.73;27.10;;;-6.00;99.90;;;;;;4963051;29;20272;-92
2023/12/05 00:40:04;;;;;;;65.07;26.57;;;-6.00;99.90;;;;;;4961603;29;20202;-91
2023/12/05 00:42:38;;;;;;;72.27;27.47;;;-6.10;99.90;;;;;;4975269;29;20290;-91
2023/12/05 00:45:09;;;;;;;66.93;25.87;;;-6.10;99.90;;;;;;4981729;28;20266;-91
2023/12/05 00:47:37;;;;;;;64.33;25.57;;;-6.10;99.90;;;;;;4949514;29;20198;-92
2023/12/05 00:50:09;;;;;;;66.23;25.57;;;-6.10;99.90;;;;;;4945639;29;20218;-92
2023/12/05 00:52:39;;;;;;;67.33;25.90;;;-6.10;99.90;;;;;;4961767;28;20198;-92
2023/12/05 00:55:06;;;;;;;62.53;24.63;;;-6.10;99.90;;;;;;4960962;29;20194;-92
2023/12/05 00:57:34;;;;;;;63.07;24.30;;;-6.10;99.90;;;;;;4963023;28;20225;-91
2023/12/05 01:00:01;;;;;;;63.43;25.73;;;-6.10;99.90;;;;;;4960927;29;20257;-92
2023/12/05 01:02:28;;;;;;;59.03;24.70;;;-6.10;99.90;;;;;;4978160;28;20170;-91
2023/12/05 01:04:55;;;;;;;68.20;25.10;;;-6.00;99.90;;;;;;4981746;28;20191;-92
2023/12/05 01:07:23;;;;;;;68.50;26.07;;;-6.10;99.90;;;;;;4981895;28;20225;-92
2023/12/05 01:09:50;;;;;;;63.03;25.10;;;-6.10;99.90;;;;;;4980925;28;20213;-91
2023/12/05 01:12:17;;;;;;;62.33;25.50;;;-6.10;99.90;;;;;;4981835;28;20288;-90
2023/12/05 01:14:44;;;;;;;57.57;25.47;;;-6.00;99.90;;;;;;4981409;28;20174;-92
2023/12/05 01:17:11;;;;;;;62.90;24.93;;;-6.10;99.90;;;;;;4967431;29;20551;-92
2023/12/05 01:19:38;;;;;;;59.87;24.43;;;-6.10;99.90;;;;;;4963570;29;20210;-92
2023/12/05 01:22:05;;;;;;;64.20;24.73;;;-6.10;99.90;;;;;;4960336;28;20671;-92
2023/12/05 01:24:33;;;;;;;61.47;25.07;;;-5.90;99.90;;;;;;4959892;29;20209;-92
2023/12/05 01:27:00;;;;;;;64.37;25.13;;;-6.00;99.90;;;;;;4961815;29;20565;-91
2023/12/05 01:29:27;;;;;;;64.00;25.53;;;-6.00;99.90;;;;;;4944368;29;20218;-92
2023/12/05 01:31:55;;;;;;;64.03;23.70;;;-6.00;99.90;;;;;;4973627;28;20193;-92
2023/12/05 01:34:22;;;;;;;61.03;23.37;;;-6.00;99.90;;;;;;4981247;28;20202;-91
2023/12/05 01:36:50;;;;;;;65.77;25.23;;;-6.00;99.90;;;;;;4964086;29;20229;-91
2023/12/05 01:39:17;;;;;;;59.93;24.33;;;-6.00;99.90;;;;;;4960376;29;20198;-92
2023/12/05 01:41:44;;;;;;;57.07;23.27;;;-6.00;99.90;;;;;;4960980;29;20213;-92
2023/12/05 01:44:11;;;;;;;61.83;24.30;;;-6.00;99.90;;;;;;4960729;29;20197;-93
2023/12/05 01:46:38;;;;;;;68.03;25.13;;;-6.00;99.90;;;;;;4960432;29;20206;-92
2023/12/05 01:49:05;;;;;;;59.30;24.90;;;-6.00;99.90;;;;;;4961496;29;20226;-92
2023/12/05 01:51:41;;;;;;;62.03;24.83;;;-6.00;99.90;;;;;;4960557;29;20186;-92
2023/12/05 01:54:08;;;;;;;54.97;23.53;;;-6.00;99.90;;;;;;4962537;29;20198;-92
2023/12/05 01:56:36;;;;;;;58.83;23.93;;;-5.80;99.90;;;;;;4961652;29;20266;-91
2023/12/05 01:59:03;;;;;;;61.00;24.73;;;-5.90;99.90;;;;;;4946067;29;20277;-92
2023/12/05 02:01:31;;;;;;;59.43;23.53;;;-5.80;99.90;;;;;;4962403;28;20300;-91
2023/12/05 02:03:58;;;;;;;57.17;23.13;;;-5.70;99.90;;;;;;4962660;29;20194;-91
2023/12/05 02:06:26;;;;;;;61.67;24.40;;;-5.70;99.90;;;;;;4960358;29;20198;-92
2023/12/05 02:08:54;;;;;;;54.73;23.23;;;-5.70;99.90;;;;;;4961034;29;20222;-92
2023/12/05 02:11:21;;;;;;;57.33;22.70;;;-5.70;99.90;;;;;;4960060;29;20221;-92
2023/12/05 02:13:48;;;;;;;59.67;25.20;;;-5.70;99.90;;;;;;4943275;29;20607;-92
2023/12/05 02:16:34;;;;;;;55.80;23.27;;;-5.70;99.90;;;;;;4944659;29;20246;-92
2023/12/05 02:19:23;;;;;;;63.07;23.77;;;-5.70;99.90;;;;;;4961659;29;20261;-93
2023/12/05 02:21:54;;;;;;;61.53;23.77;;;-5.80;99.90;;;;;;4884960;29;20693;-92
2023/12/05 02:24:52;;;;;;;60.23;24.10;;;-5.70;99.90;;;;;;4868392;29;20205;-92
2023/12/05 02:27:34;;;;;;;57.93;23.33;;;-5.70;99.90;;;;;;4867819;29;20253;-92
2023/12/05 02:30:01;;;;;;;61.13;23.60;;;-5.70;99.90;;;;;;4884571;29;20841;-92
2023/12/05 02:32:28;;;;;;;56.57;23.60;;;-5.70;99.90;;;;;;4883076;29;20296;-92
2023/12/05 02:34:55;;;;;;;56.73;23.63;;;-5.70;99.90;;;;;;4886040;29;20211;-91
2023/12/05 02:37:39;;;;;;;54.83;23.87;;;-5.70;99.90;;;;;;4886399;29;20205;-91
2023/12/05 02:40:27;;;;;;;56.53;23.43;;;-5.70;99.90;;;;;;4885356;29;20204;-92
2023/12/05 02:42:56;;;;;;;54.40;23.17;;;-5.70;99.90;;;;;;4882907;29;20217;-92
2023/12/05 02:45:28;;;;;;;57.07;23.03;;;-5.70;99.90;;;;;;4882368;29;20284;-92
2023/12/05 02:47:58;;;;;;;54.47;22.67;;;-5.70;99.90;;;;;;4882492;29;20198;-92
2023/12/05 02:50:25;;;;;;;53.77;22.73;;;-5.70;99.90;;;;;;4867026;29;20301;-92
2023/12/05 02:52:52;;;;;;;55.97;23.10;;;-5.70;99.90;;;;;;4882216;29;20211;-91
2023/12/05 02:55:21;;;;;;;58.77;23.37;;;-5.60;99.90;;;;;;4884175;29;20261;-91
2023/12/05 02:57:49;;;;;;;61.03;24.83;;;-5.60;99.90;;;;;;4890769;29;20202;-92
2023/12/05 03:00:17;;;;;;;55.57;22.50;;;-5.70;99.90;;;;;;4963676;28;20207;-92
2023/12/05 03:02:44;;;;;;;54.23;23.47;;;-5.60;99.90;;;;;;4980038;28;20225;-92
2023/12/05 03:05:11;;;;;;;58.23;22.87;;;-5.60;99.90;;;;;;4947190;29;20186;-91
2023/12/05 03:07:39;;;;;;;54.37;22.90;;;-5.50;99.90;;;;;;4979931;28;20209;-91
2023/12/05 03:10:06;;;;;;;59.93;24.23;;;-5.40;99.90;;;;;;4972732;28;20214;-92
2023/12/05 03:12:34;;;;;;;53.67;22.73;;;-5.40;99.90;;;;;;4942724;29;20253;-92
2023/12/05 03:15:01;;;;;;;54.10;22.67;;;-5.40;99.90;;;;;;4960684;28;20249;-92
2023/12/05 03:17:28;;;;;;;57.60;22.77;;;-5.30;99.90;;;;;;4959064;29;20293;-92
2023/12/05 03:19:56;;;;;;;58.87;23.43;;;-5.30;99.90;;;;;;4958544;29;20202;-92
2023/12/05 03:22:23;;;;;;;55.83;22.80;;;-5.30;99.90;;;;;;4960607;29;20202;-92
2023/12/05 03:24:50;;;;;;;58.80;23.50;;;-5.20;99.90;;;;;;4959123;29;20193;-92
2023/12/05 03:27:17;;;;;;;59.50;23.53;;;-5.20;99.90;;;;;;4957347;29;20302;-92
2023/12/05 03:29:45;;;;;;;60.33;23.47;;;-5.20;99.90;;;;;;4958420;29;20277;-92
2023/12/05 03:32:13;;;;;;;52.50;22.50;;;-5.10;99.90;;;;;;4958362;29;20199;-91
2023/12/05 03:34:40;;;;;;;62.23;24.37;;;-5.20;99.90;;;;;;4957050;29;20198;-91
2023/12/05 03:37:07;;;;;;;55.83;23.00;;;-5.20;99.90;;;;;;4958473;29;20228;-92
2023/12/05 03:39:35;;;;;;;56.57;22.67;;;-5.20;99.90;;;;;;4956900;28;20289;-90
2023/12/05 03:42:03;;;;;;;53.37;22.87;;;-5.30;99.90;;;;;;4958129;29;20245;-92
2023/12/05 03:44:30;;;;;;;60.13;22.47;;;-5.30;99.90;;;;;;4956550;28;20733;-91
2023/12/05 03:46:57;;;;;;;57.50;23.27;;;-5.20;99.90;;;;;;4940069;29;20655;-92
2023/12/05 03:49:24;;;;;;;53.80;22.90;;;-5.30;99.90;;;;;;4958920;29;20309;-91
2023/12/05 03:51:51;;;;;;;56.27;22.60;;;-5.30;99.90;;;;;;4958738;29;20206;-91
2023/12/05 03:54:18;;;;;;;53.40;22.60;;;-5.20;99.90;;;;;;4958764;29;20202;-91
2023/12/05 03:56:46;;;;;;;58.20;23.37;;;-5.10;99.90;;;;;;4959230;29;20233;-91
2023/12/05 03:59:13;;;;;;;59.90;22.93;;;-5.10;99.90;;;;;;4959614;29;20218;-91
2023/12/05 04:01:40;;;;;;;53.07;23.03;;;-5.00;99.90;;;;;;4957908;29;20262;-91
2023/12/05 04:04:07;;;;;;;54.73;23.17;;;-5.00;99.90;;;;;;4956135;29;20210;-91
2023/12/05 04:06:35;;;;;;;53.97;23.07;;;-5.00;99.90;;;;;;4941007;29;20205;-92
2023/12/05 04:09:04;;;;;;;54.87;21.93;;;-5.00;99.90;;;;;;4957367;29;20241;-91
2023/12/05 04:11:33;;;;;;;56.87;22.60;;;-4.90;99.90;;;;;;4958190;28;20210;-90
2023/12/05 04:14:01;;;;;;;54.27;22.83;;;-4.90;99.90;;;;;;4940921;29;20220;-92
2023/12/05 04:16:28;;;;;;;54.60;22.30;;;-4.90;99.90;;;;;;4940659;29;20198;-92
2023/12/05 04:18:55;;;;;;;54.37;22.77;;;-4.90;99.90;;;;;;4958987;29;20324;-92
2023/12/05 04:21:26;;;;;;;54.43;22.63;;;-4.90;99.90;;;;;;4959144;29;20206;-91
2023/12/05 04:23:53;;;;;;;53.67;23.37;;;-4.90;99.90;;;;;;4941408;29;20222;-92
2023/12/05 04:26:21;;;;;;;51.53;22.20;;;-5.00;99.90;;;;;;4957926;29;20221;-92
2023/12/05 04:28:48;;;;;;;49.40;22.70;;;-4.90;99.90;;;;;;4959711;29;20211;-91
2023/12/05 04:31:15;;;;;;;52.40;22.73;;;-4.90;99.90;;;;;;4962569;29;20213;-91
2023/12/05 04:33:43;;;;;;;51.27;21.70;;;-4.90;99.90;;;;;;4958936;29;20210;-91
2023/12/05 04:36:11;;;;;;;52.90;22.63;;;-5.00;99.90;;;;;;4958577;29;20258;-91
2023/12/05 04:38:38;;;;;;;53.03;22.63;;;-5.00;99.90;;;;;;4958208;29;20192;-91
2023/12/05 04:41:06;;;;;;;52.47;23.07;;;-4.90;99.90;;;;;;4943050;29;20234;-92
2023/12/05 04:43:33;;;;;;;51.67;21.97;;;-4.90;99.90;;;;;;4966799;29;20206;-90
2023/12/05 04:46:00;;;;;;;51.87;21.87;;;-4.90;99.90;;;;;;4967013;29;20251;-92
2023/12/05 04:48:27;;;;;;;49.77;22.17;;;-5.00;99.90;;;;;;4935339;29;20202;-90
2023/12/05 04:50:55;;;;;;;52.47;23.13;;;-4.90;99.90;;;;;;4967478;29;20215;-91
2023/12/05 04:53:22;;;;;;;49.80;22.53;;;-4.90;99.90;;;;;;4933748;29;20234;-91
2023/12/05 04:55:50;;;;;;;53.60;23.20;;;-4.90;99.90;;;;;;4967713;28;20239;-91
2023/12/05 04:58:17;;;;;;;48.80;22.37;;;-5.00;99.90;;;;;;4970894;29;20639;-91
2023/12/05 05:00:44;;;;;;;50.10;22.53;;;-4.90;99.90;;;;;;4970436;29;20186;-91
2023/12/05 05:03:12;;;;;;;48.00;21.77;;;-4.90;99.90;;;;;;4953099;29;20269;-91
2023/12/05 05:05:39;;;;;;;49.93;21.50;;;-4.90;99.90;;;;;;4965076;29;20186;-92
2023/12/05 05:08:06;;;;;;;51.70;22.13;;;-4.90;99.90;;;;;;4967159;29;20182;-92
2023/12/05 05:10:34;;;;;;;47.20;21.20;;;-5.00;99.90;;;;;;4963108;29;20304;-91
2023/12/05 05:13:01;;;;;;;47.93;21.70;;;-5.00;99.90;;;;;;4964319;29;20192;-89
2023/12/05 05:15:28;;;;;;;50.13;21.67;;;-5.10;99.90;;;;;;4948951;29;20229;-90
2023/12/05 05:17:56;;;;;;;49.10;21.73;;;-5.00;99.90;;;;;;4942502;29;20210;-90
2023/12/05 05:20:23;;;;;;;49.00;21.00;;;-5.00;99.90;;;;;;4963463;29;20436;-90
2023/12/05 05:22:51;;;;;;;51.73;21.87;;;-5.00;99.90;;;;;;4964365;29;20207;-88
2023/12/05 05:25:18;;;;;;;53.90;21.97;;;-4.90;99.90;;;;;;4962314;29;20207;-88
2023/12/05 05:27:45;;;;;;;48.20;21.23;;;-5.00;99.90;;;;;;4964774;29;20203;-89
2023/12/05 05:30:13;;;;;;;55.30;22.80;;;-5.00;99.90;;;;;;4958848;29;20220;-89
2023/12/05 05:32:41;;;;;;;49.57;21.30;;;-5.00;99.90;;;;;;4958541;29;20205;-89
2023/12/05 05:35:08;;;;;;;46.93;20.83;;;-4.90;99.90;;;;;;4958992;29;20205;-89
2023/12/05 05:37:36;;;;;;;50.10;21.10;;;-4.90;99.90;;;;;;4941052;29;20587;-90
2023/12/05 05:40:03;;;;;;;48.93;20.97;;;-4.90;99.90;;;;;;4960954;29;20199;-90
2023/12/05 05:42:31;;;;;;;48.93;20.83;;;-4.90;99.90;;;;;;4960101;29;20214;-89
2023/12/05 05:44:58;;;;;;;47.83;20.63;;;-4.90;99.90;;;;;;4957993;29;20196;-91
2023/12/05 05:47:25;;;;;;;45.70;19.47;;;-4.90;99.90;;;;;;4956353;29;20198;-90
2023/12/05 05:49:52;;;;;;;47.57;20.77;;;-5.00;99.90;;;;;;4957981;29;20234;-89
2023/12/05 05:52:19;;;;;;;49.00;20.90;;;-4.90;99.90;;;;;;4957185;29;20202;-89
2023/12/05 05:54:49;;;;;;;49.70;21.40;;;-4.90;99.90;;;;;;4957456;29;20663;-89
2023/12/05 05:57:16;;;;;;;47.00;21.63;;;-5.00;99.90;;;;;;4958104;29;20309;-89
2023/12/05 05:59:44;;;;;;;48.77;21.47;;;-5.00;99.90;;;;;;4958410;29;20245;-90
2023/12/05 06:02:14;;;;;;;47.43;21.73;;;-5.00;99.90;;;;;;4962142;29;20188;-83
2023/12/05 06:04:41;;;;;;;46.13;20.30;;;-5.00;99.90;;;;;;4957196;29;20226;-83
2023/12/05 06:07:09;;;;;;;46.63;20.80;;;-5.00;99.90;;;;;;4955853;28;20253;-82
2023/12/05 06:09:40;;;;;;;45.53;20.33;;;-5.00;99.90;;;;;;4957158;29;20249;-88
2023/12/05 06:12:08;;;;;;;48.37;20.97;;;-5.10;99.90;;;;;;4958529;29;20211;-86
2023/12/05 06:14:36;;;;;;;46.90;20.67;;;-5.10;99.90;;;;;;4940559;29;20206;-84
2023/12/05 06:17:04;;;;;;;48.83;20.37;;;-5.10;99.90;;;;;;4959477;29;20184;-90
2023/12/05 06:19:33;;;;;;;51.10;20.20;;;-5.00;99.90;;;;;;4959659;28;20207;-92
2023/12/05 06:22:00;;;;;;;52.70;21.13;;;-5.10;99.90;;;;;;4939716;29;20198;-89
2023/12/05 06:24:28;;;;;;;49.90;20.77;;;-5.10;99.90;;;;;;4940211;29;20285;-89
2023/12/05 06:26:56;;;;;;;48.00;20.17;;;-5.20;99.90;;;;;;4958222;29;20229;-88
2023/12/05 06:29:23;;;;;;;50.33;20.97;;;-5.10;99.90;;;;;;4939407;29;20253;-88
2023/12/05 06:31:50;;;;;;;48.50;20.07;;;-5.20;99.90;;;;;;4939186;29;20234;-89
2023/12/05 06:34:17;;;;;;;48.33;20.67;;;-5.20;99.90;;;;;;4939113;29;20199;-89
2023/12/05 06:36:46;;;;;;;48.30;20.97;;;-5.10;99.90;;;;;;4940375;29;20197;-89
2023/12/05 06:39:14;;;;;;;53.13;21.50;;;-5.10;99.90;;;;;;4945770;29;20246;-91
2023/12/05 06:41:43;;;;;;;48.57;21.37;;;-5.20;99.90;;;;;;4942415;29;20227;-92
2023/12/05 06:44:12;;;;;;;55.33;20.77;;;-5.20;99.90;;;;;;4949445;29;20256;-92
2023/12/05 06:46:40;;;;;;;54.40;21.30;;;-5.30;99.90;;;;;;4933423;29;20218;-93
2023/12/05 06:49:08;;;;;;;50.90;21.03;;;-5.30;99.90;;;;;;4944760;29;20237;-93
2023/12/05 06:51:36;;;;;;;48.70;20.67;;;-5.20;99.90;;;;;;4929015;29;20214;-94
2023/12/05 06:54:04;;;;;;;55.00;20.87;;;-5.30;99.90;;;;;;4940736;29;20182;-91
2023/12/05 06:56:32;;;;;;;50.43;21.73;;;-5.30;99.90;;;;;;4936873;29;20246;-92
2023/12/05 06:59:00;;;;;;;51.43;20.83;;;-5.40;99.90;;;;;;4920599;29;20195;-93
2023/12/05 07:01:28;;;;;;;50.63;21.40;;;-5.20;99.90;;;;;;4937873;29;20609;-92
2023/12/05 07:03:57;;;;;;;44.47;19.90;;;-5.40;99.90;;;;;;4923173;29;20234;-92
2023/12/05 07:06:25;;;;;;;47.70;19.97;;;-5.40;99.90;;;;;;4943267;29;20723;-92
2023/12/05 07:08:53;;;;;;;46.57;20.10;;;-5.40;99.90;;;;;;4921620;29;20209;-92
2023/12/05 07:11:21;;;;;;;47.30;20.13;;;-5.30;99.90;;;;;;4938302;29;20261;-92
2023/12/05 07:13:49;;;;;;;47.33;20.50;;;-5.40;99.90;;;;;;4936911;29;20199;-92
2023/12/05 07:16:16;;;;;;;48.47;21.10;;;-5.40;99.90;;;;;;4920413;29;20231;-92
2023/12/05 07:18:44;;;;;;;49.00;20.87;;;-5.40;99.90;;;;;;4936497;29;20254;-92
2023/12/05 07:21:12;;;;;;;49.87;20.20;;;-5.40;99.90;;;;;;4936966;29;20195;-91
2023/12/05 07:23:40;;;;;;;47.37;21.07;;;-5.40;99.90;;;;;;4938442;29;20540;-92
2023/12/05 07:26:14;;;;;;;46.17;20.67;;;-5.30;99.90;;;;;;4939266;29;20247;-92
2023/12/05 07:28:46;;;;;;;46.27;20.40;;;-5.40;99.90;;;;;;4946383;29;20195;-93
2023/12/05 07:31:15;;;;;;;49.73;20.47;;;-5.40;99.90;;;;;;4943103;29;20209;-93
2023/12/05 07:33:44;;;;;;;45.53;19.73;;;-5.30;99.90;;;;;;4925210;29;20199;-91
2023/12/05 07:36:12;;;;;;;53.37;21.03;;;-5.30;99.90;;;;;;4935008;29;20246;-88
2023/12/05 07:38:39;;;;;;;48.87;20.33;;;-5.30;99.90;;;;;;4936630;29;20278;-90
2023/12/05 07:41:16;;;;;;;49.10;20.77;;;-5.20;99.90;;;;;;4936822;29;20218;-89
2023/12/05 07:43:43;;;;;;;48.13;20.57;;;-5.10;99.90;;;;;;4936759;29;20201;-89
2023/12/05 07:46:10;;;;;;;48.87;21.53;;;-5.10;99.90;;;;;;4935942;29;20688;-88
2023/12/05 07:48:37;;;;;;;50.80;21.67;;;-5.00;99.90;;;;;;4935270;29;20251;-88
2023/12/05 07:51:05;;;;;;;47.13;20.07;;;-4.90;99.90;;;;;;4935178;29;20222;-89
2023/12/05 07:53:33;;;;;;;49.40;21.27;;;-4.70;99.90;;;;;;4934868;29;20195;-89
2023/12/05 07:56:00;;;;;;;48.47;20.20;;;-4.70;99.90;;;;;;4945678;29;20283;-89
2023/12/05 07:58:27;;;;;;;49.43;21.67;;;-4.60;99.90;;;;;;4953754;29;20233;-88
2023/12/05 08:00:55;;;;;;;51.60;21.70;;;-4.50;99.90;;;;;;4938006;29;20261;-89
2023/12/05 08:03:23;;;;;;;52.63;20.87;;;-4.50;99.90;;;;;;4939068;29;20250;-90
2023/12/05 08:05:50;;;;;;;51.17;22.40;;;-4.50;99.90;;;;;;4938593;29;20202;-89
2023/12/05 08:08:17;;;;;;;44.10;20.13;;;-4.30;99.90;;;;;;4955390;29;20194;-89
2023/12/05 08:10:44;;;;;;;49.97;21.80;;;-4.10;99.90;;;;;;4938149;29;20803;-89
2023/12/05 08:13:12;;;;;;;52.00;20.77;;;-4.00;99.90;;;;;;4955300;29;20218;-89
2023/12/05 08:15:39;;;;;;;50.03;21.87;;;-4.00;99.90;;;;;;4955848;29;20560;-89
2023/12/05 08:18:06;;;;;;;52.73;22.37;;;-3.80;99.90;;;;;;4922887;29;20206;-89
2023/12/05 08:20:33;;;;;;;54.20;21.20;;;-3.80;99.90;;;;;;4940401;29;20286;-89
2023/12/05 08:23:01;;;;;;;46.87;21.87;;;-3.60;99.90;;;;;;4956186;29;20223;-90
2023/12/05 08:25:28;;;;;;;48.73;20.70;;;-3.50;99.90;;;;;;4938963;29;20215;-89
2023/12/05 08:27:55;;;;;;;48.07;21.20;;;-3.50;99.90;;;;;;4955918;29;20194;-89
2023/12/05 08:30:23;;;;;;;47.93;20.43;;;-3.30;99.90;;;;;;4953952;28;20215;-89
2023/12/05 08:32:50;;;;;;;51.43;22.03;;;-3.40;99.90;;;;;;4959557;29;20196;-89
2023/12/05 08:35:18;;;;;;;50.23;21.53;;;-3.40;99.90;;;;;;4942682;29;20314;-90
2023/12/05 08:37:46;;;;;;;46.47;20.77;;;-3.40;99.90;;;;;;4941603;29;20210;-88
2023/12/05 08:40:13;;;;;;;48.33;21.17;;;-3.40;99.90;;;;;;4960298;29;20233;-89
2023/12/05 08:42:42;;;;;;;50.37;21.60;;;-3.40;99.90;;;;;;4958981;29;20195;-89
2023/12/05 08:45:10;;;;;;;46.57;20.97;;;-3.40;99.90;;;;;;4959251;29;20192;-89
2023/12/05 08:47:40;;;;;;;52.57;20.67;;;-3.40;99.90;;;;;;4959389;29;20205;-89
2023/12/05 08:50:08;;;;;;;47.73;21.30;;;-3.50;99.90;;;;;;4942150;29;20297;-89
2023/12/05 08:52:35;;;;;;;50.33;21.20;;;-3.60;99.90;;;;;;4942379;29;20209;-89
2023/12/05 08:55:02;;;;;;;45.40;19.80;;;-3.70;99.90;;;;;;4959096;28;20227;-89
2023/12/05 08:57:32;;;;;;;45.43;20.80;;;-3.60;99.90;;;;;;4942115;29;20244;-89
2023/12/05 09:00:02;;;;;;;50.00;20.83;;;-3.50;99.90;;;;;;4945200;29;20538;-89
2023/12/05 09:02:30;;;;;;;48.30;21.30;;;-3.60;99.90;;;;;;4942534;29;20190;-90
2023/12/05 09:04:58;;;;;;;49.07;21.03;;;-3.50;99.90;;;;;;4961456;29;20221;-90
2023/12/05 09:07:25;;;;;;;47.03;19.67;;;-3.50;99.90;;;;;;4944226;29;20269;-90
2023/12/05 09:09:53;;;;;;;46.57;21.00;;;-3.50;99.90;;;;;;4958308;29;20261;-90
2023/12/05 09:12:21;;;;;;;46.40;19.73;;;-3.50;99.90;;;;;;4962891;29;20244;-89
2023/12/05 09:14:48;;;;;;;43.83;20.50;;;-3.50;99.90;;;;;;4945437;29;20266;-89
2023/12/05 09:17:15;;;;;;;49.27;19.87;;;-3.40;99.90;;;;;;4959865;28;20691;-91
2023/12/05 09:19:42;;;;;;;44.30;19.80;;;-3.50;99.90;;;;;;4960350;29;20207;-91
2023/12/05 09:22:09;;;;;;;45.20;20.90;;;-3.50;99.90;;;;;;4959894;29;20281;-90
2023/12/05 09:24:37;;;;;;;42.90;19.13;;;-3.50;99.90;;;;;;4957380;29;20207;-89
2023/12/05 09:27:05;;;;;;;44.83;20.30;;;-3.30;99.90;;;;;;4941507;29;20703;-90
2023/12/05 09:29:33;;;;;;;44.43;19.47;;;-3.50;99.90;;;;;;4941698;29;20200;-90
2023/12/05 09:32:00;;;;;;;48.67;20.33;;;-3.50;99.90;;;;;;4960062;29;20244;-90
2023/12/05 09:34:27;;;;;;;44.13;19.80;;;-3.40;99.90;;;;;;4960258;29;20334;-90
2023/12/05 09:36:55;;;;;;;45.47;20.23;;;-3.30;99.90;;;;;;4959439;29;20550;-90
2023/12/05 09:39:25;;;;;;;42.03;19.67;;;-3.30;99.90;;;;;;4958457;29;20272;-90
2023/12/05 09:41:57;;;;;;;45.30;19.63;;;-3.30;99.90;;;;;;4958070;28;20200;-88
2023/12/05 09:44:26;;;;;;;42.60;19.33;;;-3.40;99.90;;;;;;4958279;29;20214;-89
2023/12/05 09:46:59;;;;;;;40.87;18.83;;;-3.40;99.90;;;;;;4956591;29;20629;-88
2023/12/05 09:49:27;;;;;;;45.10;20.10;;;-3.20;99.90;;;;;;4956214;28;20197;-90
2023/12/05 09:51:55;;;;;;;39.73;18.20;;;-3.20;99.90;;;;;;4939969;29;20254;-90
2023/12/05 09:54:24;;;;;;;40.03;18.60;;;-3.10;99.90;;;;;;4940517;29;20657;-90
2023/12/05 09:56:57;;;;;;;44.67;19.53;;;-3.10;99.90;;;;;;4957711;29;20289;-89
2023/12/05 09:59:25;;;;;;;40.13;19.27;;;-3.10;99.90;;;;;;4964153;29;20189;-89
2023/12/05 10:01:57;;;;;;;37.77;17.90;;;-3.00;99.90;;;;;;4958037;29;20203;-90
2023/12/05 10:04:28;;;;;;;41.50;18.93;;;-3.00;99.90;;;;;;4940470;29;20211;-90
2023/12/05 10:06:58;;;;;;;44.00;19.43;;;-2.90;99.90;;;;;;4941256;29;20197;-89
2023/12/05 10:09:30;;;;;;;44.90;19.77;;;-2.90;99.90;;;;;;4958028;29;20204;-90
2023/12/05 10:11:58;;;;;;;42.67;18.17;;;-2.90;99.90;;;;;;4956394;29;20239;-89
2023/12/05 10:14:26;;;;;;;47.10;20.13;;;-2.80;99.90;;;;;;4940113;29;20677;-90
2023/12/05 10:16:54;;;;;;;40.70;19.63;;;-2.80;99.90;;;;;;4957624;29;20242;-89
2023/12/05 10:19:22;;;;;;;40.37;18.50;;;-2.80;99.90;;;;;;4957683;29;20202;-88
2023/12/05 10:21:51;;;;;;;39.33;18.77;;;-2.80;99.90;;;;;;4940702;29;20754;-90
2023/12/05 10:24:18;;;;;;;44.03;19.60;;;-2.70;99.90;;;;;;4940836;29;20199;-90
2023/12/05 10:26:47;;;;;;;43.43;19.63;;;-2.50;99.90;;;;;;4958250;29;20210;-90
2023/12/05 10:29:15;;;;;;;40.80;18.97;;;-2.50;99.90;;;;;;4940614;29;20275;-90
2023/12/05 10:31:43;;;;;;;42.93;18.97;;;-2.30;99.90;;;;;;4956272;29;20264;-90
2023/12/05 10:34:10;;;;;;;39.43;18.37;;;-2.30;99.90;;;;;;4940435;29;20612;-91
2023/12/05 10:36:38;;;;;;;42.30;18.73;;;-2.30;99.90;;;;;;4957739;29;20243;-90
2023/12/05 10:39:05;;;;;;;40.33;18.87;;;-2.20;99.90;;;;;;4940834;29;20202;-89
2023/12/05 10:41:32;;;;;;;39.57;18.67;;;-2.20;99.90;;;;;;4956923;29;20219;-88
2023/12/05 10:44:02;;;;;;;42.03;18.70;;;-2.20;99.90;;;;;;4940416;29;20202;-89
2023/12/05 10:46:34;;;;;;;41.70;18.30;;;-2.20;99.90;;;;;;4957186;29;20281;-91
2023/12/05 10:49:04;;;;;;;43.93;18.33;;;-2.20;99.90;;;;;;4957030;29;20205;-90
2023/12/05 10:51:32;;;;;;;39.93;18.50;;;-2.10;99.90;;;;;;4940039;29;20228;-90
2023/12/05 10:53:59;;;;;;;40.87;18.07;;;-2.20;99.90;;;;;;4954980;28;20224;-90
2023/12/05 10:56:28;;;;;;;42.73;18.57;;;-2.10;99.90;;;;;;4956602;29;20226;-90
2023/12/05 10:58:58;;;;;;;40.23;18.10;;;-2.00;99.90;;;;;;4956539;29;20251;-90
2023/12/05 11:01:27;;;;;;;40.40;18.83;;;-2.00;99.90;;;;;;4955343;29;20201;-90
2023/12/05 11:03:58;;;;;;;44.40;18.87;;;-2.00;99.90;;;;;;4939966;29;20312;-90
2023/12/05 11:06:27;;;;;;;41.37;18.60;;;-2.00;99.90;;;;;;4956584;29;20208;-90
2023/12/05 11:08:54;;;;;;;40.70;18.63;;;-1.90;99.90;;;;;;4956787;29;20286;-91
2023/12/05 11:11:22;;;;;;;40.67;17.97;;;-1.80;99.90;;;;;;4954936;29;20671;-91
2023/12/05 11:13:51;;;;;;;41.03;18.37;;;-1.80;99.90;;;;;;4955103;29;20218;-90
2023/12/05 11:16:29;;;;;;;37.47;18.30;;;-1.80;99.90;;;;;;4939958;29;20206;-90
2023/12/05 11:19:06;;;;;;;41.60;18.60;;;-1.60;99.90;;;;;;4939687;29;20229;-90
2023/12/05 11:21:58;;;;;;;41.87;18.20;;;-1.60;99.90;;;;;;4923495;29;20204;-89
2023/12/05 11:24:47;;;;;;;42.87;18.57;;;-1.40;99.90;;;;;;4957232;29;20200;-89
2023/12/05 11:27:48;;;;;;;38.87;17.63;;;-1.30;99.90;;;;;;4938755;29;20227;-89
2023/12/05 11:30:49;;;;;;;40.43;17.93;;;-1.10;99.90;;;;;;4940652;29;20203;-89
2023/12/05 11:33:38;;;;;;;38.97;17.83;;;-0.70;99.90;;;;;;4957742;29;20210;-89
2023/12/05 11:36:09;;;;;;;38.97;17.80;;;-0.20;99.90;;;;;;4955746;29;20299;-88
2023/12/05 11:38:37;;;;;;;38.97;18.23;;;0.40;99.90;;;;;;4955795;29;20195;-87
2023/12/05 11:41:15;;;;;;;37.07;17.13;;;0.90;99.90;;;;;;4956096;29;20218;-88
2023/12/05 11:43:43;;;;;;;33.93;17.50;;;1.60;99.90;;;;;;4938432;29;20255;-89
2023/12/05 11:46:10;;;;;;;41.20;18.43;;;2.10;99.90;;;;;;4954844;29;20198;-89
2023/12/05 11:48:37;;;;;;;38.37;17.60;;;2.50;99.90;;;;;;4955796;29;20194;-89
2023/12/05 11:51:04;;;;;;;36.90;18.23;;;2.70;99.90;;;;;;4953793;29;20222;-87
2023/12/05 11:53:32;;;;;;;35.67;18.07;;;2.50;99.90;;;;;;4938851;29;20251;-89
2023/12/05 11:55:59;;;;;;;39.33;18.83;;;2.40;99.90;;;;;;4955639;29;20253;-88
2023/12/05 11:58:34;;;;;;;33.77;17.17;;;2.20;99.90;;;;;;4938715;29;20233;-88
2023/12/05 12:01:14;;;;;;;35.13;16.90;;;2.00;99.90;;;;;;4954785;29;20209;-89
2023/12/05 12:03:54;;;;;;;35.27;17.93;;;1.60;99.90;;;;;;4955527;29;20229;-88
2023/12/05 12:06:24;;;;;;;37.33;17.23;;;1.20;99.90;;;;;;4958336;28;20216;-88
2023/12/05 12:08:58;;;;;;;34.17;17.33;;;1.00;99.90;;;;;;4942691;29;20713;-88
2023/12/05 12:11:25;;;;;;;35.10;16.73;;;0.80;99.90;;;;;;4959437;29;20311;-88
2023/12/05 12:13:52;;;;;;;37.53;17.73;;;0.80;99.90;;;;;;4959941;29;20233;-87
2023/12/05 12:16:20;;;;;;;36.57;17.33;;;0.70;99.90;;;;;;4959340;29;20674;-88
2023/12/05 12:18:48;;;;;;;34.30;17.00;;;0.70;99.90;;;;;;4957837;29;20287;-88
2023/12/05 12:21:28;;;;;;;33.63;16.97;;;0.50;99.90;;;;;;4942860;29;20285;-88
2023/12/05 12:23:57;;;;;;;33.83;16.60;;;0.40;99.90;;;;;;4942628;29;20287;-88
2023/12/05 12:26:25;;;;;;;34.03;16.50;;;0.20;99.90;;;;;;4958438;29;20238;-88
2023/12/05 12:28:52;;;;;;;37.30;17.57;;;0.30;99.90;;;;;;4959295;29;20623;-88
2023/12/05 12:31:26;;;;;;;34.37;16.17;;;0.00;99.90;;;;;;4941563;29;20229;-87
2023/12/05 12:33:56;;;;;;;33.97;16.50;;;0.00;99.90;;;;;;4958923;29;20198;-87
2023/12/05 12:36:24;;;;;;;32.80;16.13;;;0.00;99.90;;;;;;4941575;29;20198;-86